Time;durP1;ratioP1;P1;durP2;ratioP2;P2;SDS_P1;SDS_P2;PMS_P1;PMS_P2;Temp;Humidity;BMP_temperature;BMP_pressure;BME280_temperature;BME280_humidity;BME280_pressure;Samples;Min_cycle;Max_cycle;Signal;HPM_P1;HPM_P2
2022/11/09 00:02:00;;;;;;;47.80;31.15;;;;;;;7.51;100.00;99482.22;4858278;29;20050;-85
2022/11/09 00:04:26;;;;;;;46.88;31.42;;;;;;;7.53;100.00;99474.38;4842527;29;20063;-85
2022/11/09 00:06:51;;;;;;;43.40;27.60;;;;;;;7.54;100.00;99470.88;4842747;29;20041;-85
2022/11/09 00:09:17;;;;;;;36.65;25.77;;;;;;;7.53;100.00;99479.56;4842587;29;20026;-85
2022/11/09 00:11:42;;;;;;;37.55;26.25;;;;;;;7.52;100.00;99480.47;4858125;29;20121;-85
2022/11/09 00:14:16;;;;;;;40.40;26.50;;;;;;;7.49;100.00;99479.66;4842610;29;20121;-85
2022/11/09 00:16:42;;;;;;;41.40;27.80;;;;;;;7.49;100.00;99479.66;4842605;29;20029;-85
2022/11/09 00:19:07;;;;;;;34.45;25.63;;;;;;;7.40;100.00;99458.44;4888092;29;20047;-85
2022/11/09 00:21:32;;;;;;;35.30;25.35;;;;;;;7.43;100.00;99455.72;4895980;29;20044;-85
2022/11/09 00:23:58;;;;;;;38.22;24.40;;;;;;;7.42;100.00;99454.88;4896173;29;20107;-85
2022/11/09 00:26:24;;;;;;;37.58;25.30;;;;;;;7.46;100.00;99472.03;4880567;29;20044;-85
2022/11/09 00:28:49;;;;;;;33.08;22.05;;;;;;;7.49;100.00;99476.22;4897541;29;20116;-84
2022/11/09 00:31:20;;;;;;;31.67;22.02;;;;;;;7.48;100.00;99477.13;4880401;29;20089;-85
2022/11/09 00:33:54;;;;;;;33.53;21.83;;;;;;;7.48;100.00;99472.78;4897326;29;20031;-85
2022/11/09 00:36:20;;;;;;;32.08;23.58;;;;;;;7.46;100.00;99461.66;4897187;29;20424;-84
2022/11/09 00:38:55;;;;;;;35.80;24.77;;;;;;;7.49;100.00;99465.84;4880472;29;20024;-85
2022/11/09 00:41:21;;;;;;;33.88;23.80;;;;;;;7.50;100.00;99470.16;4880457;29;20024;-85
2022/11/09 00:43:47;;;;;;;36.80;24.70;;;;;;;7.49;100.00;99471.88;4897275;29;20059;-85
2022/11/09 00:46:13;;;;;;;35.00;24.50;;;;;;;7.50;100.00;99471.00;4897051;29;20037;-85
2022/11/09 00:48:39;;;;;;;33.80;23.88;;;;;;;7.48;100.00;99469.34;4880314;29;20040;-85
2022/11/09 00:51:04;;;;;;;36.60;24.20;;;;;;;7.38;100.00;99448.13;4895829;29;20029;-85
2022/11/09 00:53:30;;;;;;;35.03;24.52;;;;;;;7.48;100.00;99472.78;4879884;29;20024;-85
2022/11/09 00:55:58;;;;;;;33.05;23.83;;;;;;;7.46;100.00;99461.66;4897243;29;20028;-85
2022/11/09 00:58:25;;;;;;;32.75;23.67;;;;;;;7.41;100.00;99453.19;4896747;29;20032;-85
2022/11/09 01:00:51;;;;;;;35.80;24.15;;;;;;;7.41;100.00;99450.59;4880275;29;20025;-85
2022/11/09 01:03:17;;;;;;;35.05;23.75;;;;;;;7.46;100.00;99458.22;4879936;29;20119;-85
2022/11/09 01:05:42;;;;;;;34.38;24.55;;;;;;;7.48;100.00;99465.03;4880142;29;20305;-85
2022/11/09 01:08:08;;;;;;;29.88;21.50;;;;;;;7.44;100.00;99453.06;4896848;29;20076;-85
2022/11/09 01:10:34;;;;;;;29.52;21.65;;;;;;;7.44;100.00;99453.06;4896845;29;20032;-85
2022/11/09 01:12:59;;;;;;;34.65;24.05;;;;;;;7.41;100.00;99447.16;4896845;29;20107;-85
2022/11/09 01:15:25;;;;;;;38.42;25.45;;;;;;;7.45;100.00;99453.91;4879953;29;20461;-85
2022/11/09 01:17:51;;;;;;;35.63;24.40;;;;;;;7.46;100.00;99459.06;4896884;29;20028;-85
2022/11/09 01:20:16;;;;;;;32.17;23.63;;;;;;;7.51;100.00;99456.31;4896809;29;20469;-85
2022/11/09 01:22:42;;;;;;;35.33;24.40;;;;;;;7.55;100.00;99457.88;4896943;29;20220;-85
2022/11/09 01:25:08;;;;;;;33.70;24.90;;;;;;;7.60;100.00;99471.50;4896978;29;20024;-85
2022/11/09 01:27:34;;;;;;;29.13;22.13;;;;;;;7.57;100.00;99447.44;4896899;29;20475;-85
2022/11/09 01:29:59;;;;;;;32.03;22.67;;;;;;;7.58;100.00;99449.13;4896825;29;20027;-85
2022/11/09 01:32:24;;;;;;;36.40;22.95;;;;;;;7.63;100.00;99448.06;4883482;29;20074;-85
2022/11/09 01:34:50;;;;;;;30.58;23.02;;;;;;;7.66;100.00;99441.91;4883823;29;20116;-85
2022/11/09 01:37:15;;;;;;;29.45;22.45;;;;;;;7.77;100.00;99454.47;4883353;29;20028;-85
2022/11/09 01:39:41;;;;;;;33.42;23.80;;;;;;;7.78;100.00;99449.22;4900877;29;20393;-85
2022/11/09 01:42:06;;;;;;;32.85;25.08;;;;;;;7.81;100.00;99443.91;4899080;29;20540;-85
2022/11/09 01:44:33;;;;;;;33.70;24.58;;;;;;;7.84;100.00;99448.16;4900231;29;20025;-85
2022/11/09 01:47:23;;;;;;;34.47;24.52;;;;;;;7.83;100.00;99433.47;4860492;29;20331;-85
2022/11/09 01:49:57;;;;;;;32.20;22.97;;;;;;;7.88;100.00;99445.38;4860683;29;20108;-85
2022/11/09 01:52:36;;;;;;;31.05;23.00;;;;;;;7.85;100.00;99437.72;4860329;29;20036;-85
2022/11/09 01:55:08;;;;;;;35.22;24.60;;;;;;;7.86;100.00;99425.59;4860582;29;20081;-84
2022/11/09 01:57:40;;;;;;;31.30;23.13;;;;;;;7.88;100.00;99428.94;4860294;29;20056;-85
2022/11/09 02:00:10;;;;;;;34.08;24.90;;;;;;;7.96;100.00;99439.88;4860358;29;20044;-85
2022/11/09 02:02:40;;;;;;;32.00;23.58;;;;;;;7.99;100.00;99442.34;4860002;29;20630;-85
2022/11/09 02:05:12;;;;;;;30.48;22.88;;;;;;;7.98;100.00;99422.53;4860334;29;20058;-85
2022/11/09 02:07:39;;;;;;;34.88;23.33;;;;;;;8.01;100.00;99430.19;4859995;29;20030;-85
2022/11/09 02:10:14;;;;;;;30.42;22.73;;;;;;;8.02;100.00;99421.50;4860293;29;20056;-85
2022/11/09 02:12:39;;;;;;;33.28;23.27;;;;;;;8.05;100.00;99431.75;4860107;29;20368;-85
2022/11/09 02:15:08;;;;;;;31.55;23.40;;;;;;;8.06;100.00;99428.25;4860471;29;20036;-85
2022/11/09 02:17:34;;;;;;;29.63;23.13;;;;;;;7.96;100.00;99406.16;4872754;29;20044;-85
2022/11/09 02:19:59;;;;;;;30.45;22.88;;;;;;;8.06;100.00;99417.03;4899695;29;20031;-85
2022/11/09 02:22:25;;;;;;;34.17;24.55;;;;;;;8.08;100.00;99430.75;4899622;29;20385;-85
2022/11/09 02:24:51;;;;;;;35.25;24.73;;;;;;;8.04;100.00;99431.78;4899528;29;20039;-85
2022/11/09 02:27:17;;;;;;;31.77;22.90;;;;;;;8.04;100.00;99432.63;4882684;29;20375;-85
2022/11/09 02:29:44;;;;;;;35.25;23.63;;;;;;;8.08;100.00;99426.41;4900048;29;20028;-85
2022/11/09 02:32:21;;;;;;;34.53;24.48;;;;;;;8.06;100.00;99435.19;4882719;29;20025;-85
2022/11/09 02:34:47;;;;;;;30.85;23.33;;;;;;;8.03;100.00;99423.16;4899491;29;20111;-85
2022/11/09 02:37:12;;;;;;;31.52;24.02;;;;;;;7.97;100.00;99418.25;4899460;29;20270;-85
2022/11/09 02:39:38;;;;;;;32.10;22.65;;;;;;;8.00;100.00;99429.31;4899072;29;20384;-85
2022/11/09 02:42:10;;;;;;;32.75;23.90;;;;;;;8.02;100.00;99434.47;4882599;29;20036;-85
2022/11/09 02:44:44;;;;;;;37.08;26.75;;;;;;;8.02;100.00;99437.06;4899193;29;20090;-85
2022/11/09 02:47:09;;;;;;;100.75;72.72;;;;;;;7.98;100.00;99428.53;4899342;29;20112;-85
2022/11/09 02:49:35;;;;;;;72.13;54.38;;;;;;;7.98;100.00;99430.28;4899268;29;20163;-85
2022/11/09 02:52:01;;;;;;;61.17;45.72;;;;;;;7.96;100.00;99427.78;4882179;29;20031;-85
2022/11/09 02:54:26;;;;;;;46.17;34.53;;;;;;;7.96;100.00;99424.31;4898897;29;20034;-85
2022/11/09 02:56:51;;;;;;;37.50;29.58;;;;;;;8.02;100.00;99436.22;4899231;29;20354;-85
2022/11/09 02:59:17;;;;;;;40.25;28.48;;;;;;;7.93;100.00;99417.50;4877737;29;20518;-85
2022/11/09 03:01:42;;;;;;;39.35;29.23;;;;;;;8.02;100.00;99441.41;4877725;29;20064;-85
2022/11/09 03:04:07;;;;;;;43.50;30.80;;;;;;;7.96;100.00;99432.09;4862291;29;20104;-85
2022/11/09 03:06:33;;;;;;;38.08;27.30;;;;;;;8.00;100.00;99450.06;4861998;29;20065;-85
2022/11/09 03:09:08;;;;;;;40.65;28.98;;;;;;;7.95;100.00;99433.84;4877913;29;20025;-85
2022/11/09 03:11:34;;;;;;;38.92;27.42;;;;;;;7.98;100.00;99448.44;4840433;29;20164;-84
2022/11/09 03:14:00;;;;;;;40.15;27.90;;;;;;;7.88;100.00;99437.59;4825298;29;20231;-85
2022/11/09 03:16:25;;;;;;;39.92;29.20;;;;;;;7.91;100.00;99442.66;4825102;29;20129;-85
2022/11/09 03:18:51;;;;;;;50.40;37.08;;;;;;;7.86;100.00;99451.53;4840512;29;20459;-85
2022/11/09 03:21:16;;;;;;;48.92;33.45;;;;;;;7.75;100.00;99433.75;4840312;29;20049;-85
2022/11/09 03:23:42;;;;;;;48.88;35.03;;;;;;;7.75;100.00;99437.22;4821930;29;20099;-85
2022/11/09 03:26:07;;;;;;;47.53;34.33;;;;;;;7.67;100.00;99441.88;4822121;29;20407;-85
2022/11/09 03:28:32;;;;;;;52.42;35.72;;;;;;;7.61;100.00;99438.66;4821976;29;20067;-85
2022/11/09 03:30:58;;;;;;;45.95;32.20;;;;;;;7.61;100.00;99443.81;4822119;29;20133;-85
2022/11/09 03:33:23;;;;;;;42.35;30.92;;;;;;;7.59;100.00;99454.25;4821787;29;20049;-85
2022/11/09 03:35:48;;;;;;;41.70;29.08;;;;;;;7.47;100.00;99442.59;4822024;29;20121;-85
2022/11/09 03:38:14;;;;;;;41.55;28.33;;;;;;;7.54;100.00;99450.13;4821947;29;20099;-85
2022/11/09 03:40:39;;;;;;;40.65;27.75;;;;;;;7.51;100.00;99451.13;4821766;29;20531;-85
2022/11/09 03:43:05;;;;;;;41.78;29.25;;;;;;;7.45;100.00;99453.91;4834796;29;20045;-85
2022/11/09 03:45:30;;;;;;;43.28;28.45;;;;;;;7.37;100.00;99446.41;4840037;29;20109;-85
2022/11/09 03:48:01;;;;;;;43.13;30.50;;;;;;;7.35;100.00;99445.66;4824977;29;20489;-85
2022/11/09 03:50:31;;;;;;;37.55;27.52;;;;;;;7.27;100.00;99441.66;4839908;29;20128;-85
2022/11/09 03:52:58;;;;;;;40.08;26.92;;;;;;;7.25;100.00;99434.78;4839557;29;20034;-85
2022/11/09 03:55:24;;;;;;;41.17;28.30;;;;;;;7.23;100.00;99444.34;4869014;29;20108;-85
2022/11/09 03:57:49;;;;;;;43.25;28.40;;;;;;;7.27;100.00;99446.81;4897883;29;20413;-84
2022/11/09 04:00:17;;;;;;;46.13;31.52;;;;;;;7.27;100.00;99450.25;4881130;29;20036;-85
2022/11/09 04:02:43;;;;;;;47.42;31.67;;;;;;;7.18;100.00;99441.06;4897635;29;20107;-85
2022/11/09 04:05:10;;;;;;;60.13;38.83;;;;;;;7.28;100.00;99443.31;4898002;29;20465;-85
2022/11/09 04:07:35;;;;;;;65.20;40.85;;;;;;;7.24;100.00;99430.47;4880818;29;20025;-85
2022/11/09 04:10:01;;;;;;;63.22;40.55;;;;;;;7.25;100.00;99432.19;4880980;29;20088;-85
2022/11/09 04:12:26;;;;;;;62.17;39.83;;;;;;;7.23;100.00;99444.34;4897515;29;20365;-85
2022/11/09 04:14:52;;;;;;;55.83;37.20;;;;;;;7.20;100.00;99434.09;4897742;29;20029;-85
2022/11/09 04:17:17;;;;;;;54.33;35.47;;;;;;;7.22;100.00;99434.88;4897697;29;20431;-85
2022/11/09 04:19:42;;;;;;;56.80;36.13;;;;;;;7.14;100.00;99420.53;4880587;29;20044;-85
2022/11/09 04:22:08;;;;;;;57.08;35.90;;;;;;;7.09;100.00;99415.50;4896313;29;20244;-85
2022/11/09 04:24:33;;;;;;;50.20;34.25;;;;;;;7.17;100.00;99439.41;4897532;29;20528;-85
2022/11/09 04:26:59;;;;;;;54.13;34.60;;;;;;;7.18;100.00;99435.91;4896367;29;20028;-85
2022/11/09 04:29:24;;;;;;;54.10;33.28;;;;;;;7.12;100.00;99420.59;4897430;29;20031;-85
2022/11/09 04:31:50;;;;;;;54.80;35.92;;;;;;;7.20;100.00;99430.66;4880293;29;20055;-85
2022/11/09 04:34:16;;;;;;;55.22;34.60;;;;;;;7.20;100.00;99430.66;4880442;29;20104;-85
2022/11/09 04:36:42;;;;;;;45.92;32.20;;;;;;;7.24;100.00;99433.06;4897099;29;20128;-85
2022/11/09 04:39:07;;;;;;;59.70;35.67;;;;;;;7.13;100.00;99408.47;4880574;29;20469;-85
2022/11/09 04:41:32;;;;;;;59.70;37.17;;;;;;;7.24;100.00;99425.31;4880257;29;20025;-85
2022/11/09 04:43:58;;;;;;;71.75;44.15;;;;;;;7.25;100.00;99416.66;4880399;29;20029;-85
2022/11/09 04:46:23;;;;;;;78.00;45.58;;;;;;;7.22;100.00;99414.16;4895933;29;20044;-85
2022/11/09 04:48:49;;;;;;;96.10;52.45;;;;;;;7.23;100.00;99410.66;4880031;29;20032;-85
2022/11/09 04:51:14;;;;;;;71.50;44.35;;;;;;;7.18;100.00;99402.22;4897100;29;20132;-85
2022/11/09 04:53:40;;;;;;;67.72;42.60;;;;;;;7.25;100.00;99424.41;4896916;29;20064;-85
2022/11/09 04:56:06;;;;;;;63.60;38.45;;;;;;;7.24;100.00;99416.69;4880297;29;20108;-85
2022/11/09 04:58:32;;;;;;;62.35;40.63;;;;;;;7.25;100.00;99421.00;4897212;29;20365;-85
2022/11/09 05:01:06;;;;;;;59.10;41.00;;;;;;;7.18;100.00;99415.19;4880142;29;20111;-85
2022/11/09 05:03:32;;;;;;;58.60;38.42;;;;;;;7.13;100.00;99403.31;4896709;29;20032;-85
2022/11/09 05:05:57;;;;;;;52.05;35.47;;;;;;;7.23;100.00;99417.59;4896349;29;20409;-85
2022/11/09 05:08:23;;;;;;;49.30;33.47;;;;;;;7.19;100.00;99405.66;4897263;29;20040;-85
2022/11/09 05:10:48;;;;;;;44.67;31.00;;;;;;;7.27;100.00;99402.78;4896797;29;20049;-85
2022/11/09 05:13:14;;;;;;;44.60;30.40;;;;;;;7.34;100.00;99399.06;4875638;29;20092;-85
2022/11/09 05:15:40;;;;;;;48.97;32.20;;;;;;;7.32;100.00;99398.28;4860058;29;20477;-85
2022/11/09 05:18:06;;;;;;;46.90;31.15;;;;;;;7.27;100.00;99382.06;4875774;29;20497;-85
2022/11/09 05:20:33;;;;;;;48.10;31.60;;;;;;;7.37;100.00;99404.97;4875656;29;20037;-85
2022/11/09 05:25:43;;;;;;;40.78;27.80;;;;;;;7.30;100.00;99415.63;4875780;29;20048;-85
2022/11/09 05:28:08;;;;;;;41.60;30.08;;;;;;;7.29;100.00;99411.34;4875773;29;20033;-85
2022/11/09 05:30:34;;;;;;;43.55;29.88;;;;;;;7.28;100.00;99412.25;4878337;29;20080;-85
2022/11/09 05:32:59;;;;;;;42.75;28.75;;;;;;;7.28;100.00;99420.00;4878465;29;20134;-85
2022/11/09 05:35:25;;;;;;;42.42;29.02;;;;;;;7.25;100.00;99421.00;4894218;29;20035;-85
2022/11/09 05:37:51;;;;;;;47.45;31.65;;;;;;;7.10;100.00;99399.06;4878366;29;20040;-85
2022/11/09 05:40:18;;;;;;;46.90;30.35;;;;;;;7.18;100.00;99403.97;4878798;29;20077;-85
2022/11/09 05:42:43;;;;;;;43.58;29.58;;;;;;;7.16;100.00;99404.03;4893916;29;20041;-85
2022/11/09 05:45:12;;;;;;;45.22;30.35;;;;;;;7.22;100.00;99419.34;4878234;29;20507;-85
2022/11/09 05:47:39;;;;;;;45.92;30.90;;;;;;;7.17;100.00;99404.88;4878453;29;20032;-85
2022/11/09 05:50:06;;;;;;;44.10;29.27;;;;;;;7.11;100.00;99399.91;4878931;29;20395;-85
2022/11/09 05:52:31;;;;;;;46.33;31.38;;;;;;;7.19;100.00;99409.09;4879488;29;20021;-85
2022/11/09 05:54:57;;;;;;;41.85;29.83;;;;;;;7.18;100.00;99409.16;4879689;29;20023;-85
2022/11/09 05:57:22;;;;;;;41.08;29.42;;;;;;;7.19;100.00;99413.44;4879648;29;20115;-85
2022/11/09 05:59:47;;;;;;;43.92;29.75;;;;;;;7.22;100.00;99423.69;4879347;29;20488;-85
2022/11/09 06:02:13;;;;;;;40.38;28.35;;;;;;;7.13;100.00;99409.31;4879828;29;20032;-85
2022/11/09 06:04:38;;;;;;;43.30;29.52;;;;;;;7.11;100.00;99416.28;4896627;29;20024;-85
2022/11/09 06:07:03;;;;;;;40.88;28.10;;;;;;;7.15;100.00;99422.22;4880022;29;20028;-85
2022/11/09 06:09:29;;;;;;;40.70;30.13;;;;;;;7.17;100.00;99426.44;4879673;29;20029;-85
2022/11/09 06:11:54;;;;;;;45.03;30.27;;;;;;;7.16;100.00;99419.59;4879260;29;20031;-85
2022/11/09 06:14:19;;;;;;;38.55;28.65;;;;;;;7.15;100.00;99417.03;4879460;29;20029;-85
2022/11/09 06:16:45;;;;;;;48.53;36.13;;;;;;;7.13;100.00;99422.28;4880643;29;20096;-85
2022/11/09 06:19:10;;;;;;;41.65;30.33;;;;;;;7.15;100.00;99427.38;4899949;29;20029;-86
2022/11/09 06:21:36;;;;;;;45.17;31.25;;;;;;;7.16;100.00;99423.88;4899406;29;20082;-85
2022/11/09 06:24:01;;;;;;;49.63;34.53;;;;;;;7.11;100.00;99418.88;4882854;29;20083;-85
2022/11/09 06:26:26;;;;;;;51.92;36.85;;;;;;;7.12;100.00;99428.38;4899655;29;20032;-86
2022/11/09 06:28:52;;;;;;;47.13;33.83;;;;;;;7.11;100.00;99425.81;4882438;29;20451;-85
2022/11/09 06:31:19;;;;;;;45.03;32.45;;;;;;;7.04;100.00;99420.03;4899792;29;20040;-86
2022/11/09 06:33:44;;;;;;;46.22;32.60;;;;;;;7.09;100.00;99431.06;4899454;29;20031;-85
2022/11/09 06:36:10;;;;;;;54.83;36.40;;;;;;;7.06;100.00;99423.38;4899625;29;20115;-86
2022/11/09 06:38:36;;;;;;;45.47;33.13;;;;;;;7.03;100.00;99439.03;4882362;29;20032;-86
2022/11/09 06:41:01;;;;;;;48.92;32.53;;;;;;;7.02;100.00;99433.91;4882497;29;20021;-85
2022/11/09 06:43:27;;;;;;;47.88;32.60;;;;;;;6.95;100.00;99422.91;4899261;29;20413;-85
2022/11/09 06:45:53;;;;;;;56.17;37.08;;;;;;;6.98;100.00;99418.47;4899071;29;20266;-85
2022/11/09 06:48:19;;;;;;;72.90;46.08;;;;;;;6.97;100.00;99426.31;4899460;29;20031;-85
2022/11/09 06:50:44;;;;;;;51.92;34.63;;;;;;;6.99;100.00;99425.38;4899108;29;20052;-85
2022/11/09 06:53:12;;;;;;;53.10;35.17;;;;;;;7.07;100.00;99429.41;4882456;29;20104;-85
2022/11/09 06:55:37;;;;;;;50.03;33.63;;;;;;;7.13;100.00;99432.63;4899023;29;20036;-85
2022/11/09 06:58:12;;;;;;;49.75;32.47;;;;;;;7.15;100.00;99429.97;4882208;29;20116;-85
2022/11/09 07:00:38;;;;;;;47.28;33.45;;;;;;;7.31;100.00;99443.22;4882247;29;20033;-85
2022/11/09 07:03:03;;;;;;;48.63;32.70;;;;;;;7.39;100.00;99433.44;4882258;29;20541;-85
2022/11/09 07:05:29;;;;;;;51.80;36.97;;;;;;;7.52;100.00;99428.63;4882273;29;20115;-85
2022/11/09 07:07:55;;;;;;;50.85;35.47;;;;;;;7.58;100.00;99429.22;4898812;29;20021;-85
2022/11/09 07:10:21;;;;;;;53.88;36.42;;;;;;;7.68;100.00;99420.22;4898770;29;20028;-85
2022/11/09 07:12:46;;;;;;;48.60;33.80;;;;;;;7.94;100.00;99416.59;4898596;29;20096;-85
2022/11/09 07:15:12;;;;;;;45.92;32.38;;;;;;;8.12;100.00;99427.16;4899067;29;20487;-85
2022/11/09 07:17:39;;;;;;;47.30;32.22;;;;;;;8.21;100.00;99438.00;4881936;29;20036;-85
2022/11/09 07:20:06;;;;;;;40.28;30.02;;;;;;;8.43;100.00;99443.22;4881707;29;20388;-86
2022/11/09 07:22:33;;;;;;;43.70;31.20;;;;;;;8.51;100.00;99440.28;4898095;29;20135;-85
2022/11/09 07:24:59;;;;;;;48.50;32.55;;;;;;;8.45;100.00;99454.34;4880975;29;20246;-85
2022/11/09 07:27:24;;;;;;;43.85;31.05;;;;;;;8.34;100.00;99453.06;4881289;29;20460;-85
2022/11/09 07:29:50;;;;;;;46.33;31.10;;;;;;;8.44;100.00;99457.03;4880653;29;20059;-85
2022/11/09 07:32:15;;;;;;;44.67;32.28;;;;;;;8.64;100.00;99443.22;4898077;29;20424;-85
2022/11/09 07:34:41;;;;;;;47.67;32.03;;;;;;;8.86;100.00;99437.97;4898016;29;20021;-85
2022/11/09 07:37:06;;;;;;;47.00;32.65;;;;;;;8.93;100.00;99432.44;4881561;29;20088;-85
2022/11/09 07:39:31;;;;;;;47.85;34.20;;;;;;;9.09;100.00;99421.38;4881694;29;20060;-85
2022/11/09 07:41:57;;;;;;;42.92;32.00;;;;;;;9.36;100.00;99417.53;4881188;29;20028;-86
2022/11/09 07:44:22;;;;;;;46.80;32.58;;;;;;;9.56;100.00;99431.38;4881668;29;20422;-86
2022/11/09 07:46:48;;;;;;;42.20;30.55;;;;;;;9.64;100.00;99432.69;4881225;29;20115;-85
2022/11/09 07:49:15;;;;;;;49.58;32.95;;;;;;;9.74;100.00;99422.75;4898262;29;20029;-85
2022/11/09 07:51:41;;;;;;;47.92;33.47;;;;;;;9.84;100.00;99429.19;4898204;29;20052;-85
2022/11/09 07:54:06;;;;;;;44.15;31.50;;;;;;;9.87;100.00;99442.06;4897962;29;20020;-86
2022/11/09 07:56:32;;;;;;;50.22;32.47;;;;;;;9.95;100.00;99446.91;4898316;29;20406;-86
2022/11/09 07:58:57;;;;;;;46.80;30.08;;;;;;;10.10;100.00;99440.94;4881095;29;20035;-85
2022/11/09 08:01:22;;;;;;;41.65;30.67;;;;;;;10.42;100.00;99434.22;4881249;29;20427;-85
2022/11/09 08:03:48;;;;;;;44.70;30.85;;;;;;;10.57;100.00;99443.00;4880977;29;20029;-85
2022/11/09 08:06:13;;;;;;;45.40;30.52;;;;;;;10.67;100.00;99441.66;4897924;29;20032;-86
2022/11/09 08:08:39;;;;;;;42.20;30.45;;;;;;;10.74;100.00;99437.84;4897885;29;20020;-86
2022/11/09 08:11:04;;;;;;;39.85;28.83;;;;;;;10.69;100.00;99429.38;4897702;29;20160;-86
2022/11/09 08:13:30;;;;;;;43.33;29.92;;;;;;;10.71;100.00;99440.59;4897993;29;20111;-86
2022/11/09 08:15:55;;;;;;;42.22;29.25;;;;;;;10.68;99.66;99434.69;4897486;29;20040;-86
2022/11/09 08:18:21;;;;;;;47.45;30.65;;;;;;;10.66;99.63;99420.88;4880906;29;20020;-86
2022/11/09 08:20:48;;;;;;;40.13;29.42;;;;;;;10.62;99.19;99420.22;4897440;29;20104;-86
2022/11/09 08:23:15;;;;;;;39.92;29.60;;;;;;;10.64;99.32;99438.34;4880505;29;20058;-85
2022/11/09 08:25:41;;;;;;;41.13;30.02;;;;;;;10.63;99.40;99418.44;4897425;29;20033;-86
2022/11/09 08:28:07;;;;;;;45.25;29.10;;;;;;;10.64;98.76;99418.34;4897635;29;20361;-86
2022/11/09 08:30:32;;;;;;;40.72;28.95;;;;;;;10.56;99.22;99414.47;4897578;29;20039;-85
2022/11/09 08:32:59;;;;;;;43.85;31.17;;;;;;;10.60;98.82;99414.22;4897202;29;20036;-85
2022/11/09 08:35:25;;;;;;;44.15;30.23;;;;;;;10.74;98.85;99401.34;4897378;29;20024;-86
2022/11/09 08:37:52;;;;;;;48.85;30.40;;;;;;;10.95;98.61;99419.38;4897071;29;20028;-85
2022/11/09 08:40:21;;;;;;;42.78;29.13;;;;;;;11.01;97.84;99419.09;4897422;29;20029;-86
2022/11/09 08:42:46;;;;;;;42.70;28.92;;;;;;;11.17;97.42;99433.00;4897202;29;20107;-85
2022/11/09 08:45:12;;;;;;;43.95;28.98;;;;;;;11.19;96.99;99435.53;4897364;29;20482;-85
2022/11/09 08:47:38;;;;;;;42.13;30.02;;;;;;;11.10;96.67;99436.84;4880401;29;20090;-85
2022/11/09 08:50:05;;;;;;;41.63;29.27;;;;;;;11.09;97.03;99443.00;4897022;29;20528;-85
2022/11/09 08:52:31;;;;;;;41.33;30.30;;;;;;;11.10;96.97;99442.06;4897009;29;20025;-85
2022/11/09 08:54:56;;;;;;;42.92;30.75;;;;;;;11.03;96.47;99429.41;4880245;29;20036;-85
2022/11/09 08:57:22;;;;;;;41.88;30.40;;;;;;;10.91;96.88;99413.53;4897246;29;20067;-85
2022/11/09 08:59:48;;;;;;;43.97;30.00;;;;;;;10.99;97.16;99431.34;4880130;29;20428;-85
2022/11/09 09:02:13;;;;;;;40.67;28.65;;;;;;;10.94;97.11;99438.56;4897216;29;20028;-85
2022/11/09 09:04:39;;;;;;;40.03;29.88;;;;;;;10.84;97.18;99440.81;4880154;29;20036;-85
2022/11/09 09:07:05;;;;;;;40.80;29.67;;;;;;;10.71;97.76;99443.19;4879828;29;20024;-85
2022/11/09 09:09:31;;;;;;;43.05;30.05;;;;;;;10.72;98.61;99450.06;4897210;29;20372;-85
2022/11/09 09:11:56;;;;;;;42.80;30.80;;;;;;;10.67;99.03;99446.03;4879695;29;20491;-85
2022/11/09 09:14:22;;;;;;;44.92;30.45;;;;;;;10.57;98.92;99437.81;4880119;29;20075;-85
2022/11/09 09:16:47;;;;;;;43.97;30.95;;;;;;;10.56;100.00;99449.16;4896640;29;20417;-85
2022/11/09 09:19:13;;;;;;;45.70;32.92;;;;;;;10.48;100.00;99431.31;4896912;29;20032;-85
2022/11/09 09:21:38;;;;;;;44.80;31.13;;;;;;;10.49;100.00;99440.81;4879804;29;20049;-85
2022/11/09 09:24:04;;;;;;;44.42;31.75;;;;;;;10.43;100.00;99446.31;4880008;29;20194;-85
2022/11/09 09:26:29;;;;;;;45.17;31.92;;;;;;;10.41;100.00;99434.31;4880170;29;20047;-85
2022/11/09 09:28:54;;;;;;;47.20;31.77;;;;;;;10.47;100.00;99441.81;4879814;29;20453;-85
2022/11/09 09:31:20;;;;;;;47.00;32.35;;;;;;;10.43;100.00;99445.47;4896859;29;20102;-85
2022/11/09 09:33:46;;;;;;;46.08;32.83;;;;;;;10.43;100.00;99445.47;4896437;29;20519;-85
2022/11/09 09:36:21;;;;;;;45.35;31.63;;;;;;;10.52;100.00;99454.59;4879764;29;20457;-85
2022/11/09 09:38:50;;;;;;;45.60;32.22;;;;;;;10.52;100.00;99462.41;4879808;29;20065;-85
2022/11/09 09:41:33;;;;;;;45.40;33.38;;;;;;;10.47;100.00;99447.84;4896806;29;20036;-85
2022/11/09 09:44:11;;;;;;;49.33;33.08;;;;;;;10.54;100.00;99452.78;4879709;29;20025;-85
2022/11/09 09:46:39;;;;;;;44.85;31.48;;;;;;;10.52;100.00;99445.00;4896549;29;20373;-85
2022/11/09 09:49:16;;;;;;;48.58;33.40;;;;;;;10.55;100.00;99451.84;4896567;29;20103;-85
2022/11/09 09:51:51;;;;;;;45.50;31.92;;;;;;;10.57;100.00;99456.03;4897900;29;20115;-85
2022/11/09 09:54:21;;;;;;;42.20;31.00;;;;;;;10.68;100.00;99458.13;4883266;29;20091;-85
2022/11/09 09:56:49;;;;;;;45.65;32.30;;;;;;;10.65;100.00;99451.28;4900052;29;20123;-85
2022/11/09 09:59:36;;;;;;;46.47;32.35;;;;;;;10.71;100.00;99457.97;4900128;29;20024;-85
2022/11/09 10:02:01;;;;;;;47.83;32.13;;;;;;;10.75;100.00;99446.47;4883144;29;20036;-85
2022/11/09 10:04:40;;;;;;;45.88;32.33;;;;;;;10.73;100.00;99449.16;4900160;29;20024;-85
2022/11/09 10:07:16;;;;;;;49.30;32.40;;;;;;;10.76;100.00;99439.50;4899906;29;20031;-85
2022/11/09 10:09:53;;;;;;;44.88;31.48;;;;;;;10.82;100.00;99437.41;4900136;29;20460;-85
2022/11/09 10:12:50;;;;;;;44.42;31.95;;;;;;;10.87;100.00;99442.38;4841639;29;20061;-85
2022/11/09 10:15:37;;;;;;;46.00;31.77;;;;;;;10.84;100.00;99442.56;4842117;29;20034;-83
2022/11/09 10:18:33;;;;;;;44.03;31.98;;;;;;;10.93;100.00;99447.31;4825952;29;20035;-85
2022/11/09 10:21:36;;;;;;;44.10;32.40;;;;;;;11.02;100.00;99449.44;4841359;29;20042;-86
2022/11/09 10:24:14;;;;;;;43.95;32.05;;;;;;;11.01;100.00;99452.97;4825908;29;20374;-85
2022/11/09 10:26:50;;;;;;;43.83;31.63;;;;;;;11.08;100.00;99441.31;4826153;29;20493;-85
2022/11/09 10:29:22;;;;;;;53.15;33.15;;;;;;;11.10;100.00;99439.44;4841621;29;20033;-85
2022/11/09 10:31:54;;;;;;;45.38;30.48;;;;;;;11.05;100.00;99427.59;4841466;29;20034;-85
2022/11/09 10:34:26;;;;;;;47.47;32.33;;;;;;;11.21;100.00;99451.94;4825939;29;20121;-85
2022/11/09 10:36:57;;;;;;;49.05;32.63;;;;;;;11.34;100.00;99455.59;4825724;29;20444;-85
2022/11/09 10:39:26;;;;;;;48.13;32.58;;;;;;;11.34;100.00;99459.97;4841539;29;20466;-85
2022/11/09 10:41:51;;;;;;;47.63;32.65;;;;;;;11.27;100.00;99432.50;4841295;29;20036;-85
2022/11/09 10:44:18;;;;;;;47.15;32.80;;;;;;;11.39;100.00;99437.09;4892747;29;20041;-85
2022/11/09 10:47:04;;;;;;;46.20;31.83;;;;;;;11.54;100.00;99451.88;4899445;29;20036;-85
2022/11/09 10:49:30;;;;;;;43.60;30.33;;;;;;;11.52;100.00;99450.31;4899465;29;20023;-85
2022/11/09 10:51:56;;;;;;;44.90;30.30;;;;;;;11.56;100.00;99452.66;4899140;29;20028;-85
2022/11/09 10:54:27;;;;;;;44.83;31.20;;;;;;;11.60;100.00;99450.75;4899232;29;20060;-85
2022/11/09 10:57:18;;;;;;;48.15;31.35;;;;;;;11.68;99.96;99462.44;4898975;29;20031;-85
2022/11/09 10:59:44;;;;;;;48.45;32.72;;;;;;;11.68;100.00;99465.06;4882096;29;20036;-85
2022/11/09 11:02:40;;;;;;;44.75;30.88;;;;;;;11.79;100.00;99450.56;4898700;29;20060;-85
2022/11/09 11:05:06;;;;;;;44.53;31.30;;;;;;;11.84;100.00;99449.44;4788881;29;20035;-85
2022/11/09 11:07:33;;;;;;;42.97;29.25;;;;;;;11.82;99.94;99440.81;4804558;29;20038;-85
2022/11/09 11:10:13;;;;;;;45.35;30.00;;;;;;;11.90;100.00;99443.03;4804161;29;20045;-85
2022/11/09 11:12:39;;;;;;;42.10;29.40;;;;;;;11.89;99.34;99423.94;4804275;29;20454;-85
2022/11/09 11:15:24;;;;;;;41.83;27.92;;;;;;;11.89;99.14;99430.91;4804087;29;20030;-85
2022/11/09 11:17:59;;;;;;;40.35;26.83;;;;;;;11.88;99.09;99447.47;4804385;29;20039;-85
2022/11/09 11:20:24;;;;;;;41.65;28.70;;;;;;;11.96;99.49;99440.06;4804271;29;20452;-85
2022/11/09 11:22:49;;;;;;;42.22;28.73;;;;;;;11.99;98.77;99445.13;4804074;29;20129;-85